sensor_id;sensor_type;location;lat;lon;timestamp;P1;durP1;ratioP1;P2;durP2;ratioP2
42200;SDS011;27869;51.442;7.540;2024-02-21T00:00:01;21.00;;;6.05;;
42200;SDS011;27869;51.442;7.540;2024-02-21T00:02:28;19.38;;;6.18;;
42200;SDS011;27869;51.442;7.540;2024-02-21T00:04:55;20.42;;;5.70;;
42200;SDS011;27869;51.442;7.540;2024-02-21T00:07:23;19.90;;;6.03;;
42200;SDS011;27869;51.442;7.540;2024-02-21T00:09:50;19.10;;;6.20;;
42200;SDS011;27869;51.442;7.540;2024-02-21T00:12:17;20.08;;;5.95;;
42200;SDS011;27869;51.442;7.540;2024-02-21T00:14:44;22.73;;;5.80;;
42200;SDS011;27869;51.442;7.540;2024-02-21T00:17:11;23.20;;;6.13;;
42200;SDS011;27869;51.442;7.540;2024-02-21T00:19:38;22.85;;;6.93;;
42200;SDS011;27869;51.442;7.540;2024-02-21T00:22:05;21.48;;;5.65;;
42200;SDS011;27869;51.442;7.540;2024-02-21T00:24:33;22.10;;;6.35;;
42200;SDS011;27869;51.442;7.540;2024-02-21T00:27:00;24.88;;;6.63;;
42200;SDS011;27869;51.442;7.540;2024-02-21T00:29:27;17.63;;;5.47;;
42200;SDS011;27869;51.442;7.540;2024-02-21T00:31:54;21.45;;;6.20;;
42200;SDS011;27869;51.442;7.540;2024-02-21T00:34:21;19.02;;;6.05;;
42200;SDS011;27869;51.442;7.540;2024-02-21T00:36:47;20.60;;;6.00;;
42200;SDS011;27869;51.442;7.540;2024-02-21T00:39:15;22.80;;;6.07;;
42200;SDS011;27869;51.442;7.540;2024-02-21T00:41:43;19.48;;;5.97;;
42200;SDS011;27869;51.442;7.540;2024-02-21T00:44:10;18.92;;;5.95;;
42200;SDS011;27869;51.442;7.540;2024-02-21T00:46:37;20.50;;;5.70;;
42200;SDS011;27869;51.442;7.540;2024-02-21T00:49:04;19.40;;;5.93;;
42200;SDS011;27869;51.442;7.540;2024-02-21T00:51:31;24.67;;;6.53;;
42200;SDS011;27869;51.442;7.540;2024-02-21T00:53:58;24.38;;;6.57;;
42200;SDS011;27869;51.442;7.540;2024-02-21T00:56:26;18.15;;;5.43;;
42200;SDS011;27869;51.442;7.540;2024-02-21T00:58:56;17.05;;;5.80;;
42200;SDS011;27869;51.442;7.540;2024-02-21T01:01:23;19.23;;;5.60;;
42200;SDS011;27869;51.442;7.540;2024-02-21T01:03:51;24.00;;;6.53;;
42200;SDS011;27869;51.442;7.540;2024-02-21T01:06:18;18.55;;;6.18;;
42200;SDS011;27869;51.442;7.540;2024-02-21T01:08:45;21.45;;;6.40;;
42200;SDS011;27869;51.442;7.540;2024-02-21T01:11:12;20.75;;;6.45;;
42200;SDS011;27869;51.442;7.540;2024-02-21T01:13:39;20.67;;;5.88;;
42200;SDS011;27869;51.442;7.540;2024-02-21T01:16:08;21.45;;;5.78;;
42200;SDS011;27869;51.442;7.540;2024-02-21T01:18:36;20.88;;;6.63;;
42200;SDS011;27869;51.442;7.540;2024-02-21T01:21:04;22.42;;;6.78;;
42200;SDS011;27869;51.442;7.540;2024-02-21T01:23:32;18.95;;;5.63;;
42200;SDS011;27869;51.442;7.540;2024-02-21T01:25:59;19.27;;;6.07;;
42200;SDS011;27869;51.442;7.540;2024-02-21T01:28:25;21.60;;;5.85;;
42200;SDS011;27869;51.442;7.540;2024-02-21T01:30:52;20.45;;;5.88;;
42200;SDS011;27869;51.442;7.540;2024-02-21T01:33:20;20.65;;;6.93;;
42200;SDS011;27869;51.442;7.540;2024-02-21T01:35:47;19.13;;;6.13;;
42200;SDS011;27869;51.442;7.540;2024-02-21T01:38:15;22.75;;;6.20;;
42200;SDS011;27869;51.442;7.540;2024-02-21T01:40:42;20.15;;;5.50;;
42200;SDS011;27869;51.442;7.540;2024-02-21T01:43:15;18.75;;;5.53;;
42200;SDS011;27869;51.442;7.540;2024-02-21T01:45:43;19.67;;;5.68;;
42200;SDS011;27869;51.442;7.540;2024-02-21T01:48:12;22.60;;;5.75;;
42200;SDS011;27869;51.442;7.540;2024-02-21T01:50:41;19.20;;;6.82;;
42200;SDS011;27869;51.442;7.540;2024-02-21T01:53:08;20.60;;;6.30;;
42200;SDS011;27869;51.442;7.540;2024-02-21T01:55:35;22.15;;;6.03;;
42200;SDS011;27869;51.442;7.540;2024-02-21T01:58:02;19.80;;;6.45;;
42200;SDS011;27869;51.442;7.540;2024-02-21T02:00:29;18.83;;;6.55;;
42200;SDS011;27869;51.442;7.540;2024-02-21T02:02:58;21.80;;;6.22;;
42200;SDS011;27869;51.442;7.540;2024-02-21T02:05:25;21.33;;;6.07;;
42200;SDS011;27869;51.442;7.540;2024-02-21T02:07:54;17.25;;;5.50;;
42200;SDS011;27869;51.442;7.540;2024-02-21T02:10:21;19.20;;;6.03;;
42200;SDS011;27869;51.442;7.540;2024-02-21T02:12:48;20.23;;;6.25;;
42200;SDS011;27869;51.442;7.540;2024-02-21T02:15:14;22.77;;;5.72;;
42200;SDS011;27869;51.442;7.540;2024-02-21T02:17:41;20.20;;;5.80;;
42200;SDS011;27869;51.442;7.540;2024-02-21T02:20:08;22.13;;;6.03;;
42200;SDS011;27869;51.442;7.540;2024-02-21T02:22:36;20.73;;;5.75;;
42200;SDS011;27869;51.442;7.540;2024-02-21T02:25:06;26.92;;;6.25;;
42200;SDS011;27869;51.442;7.540;2024-02-21T02:27:40;21.52;;;5.50;;
42200;SDS011;27869;51.442;7.540;2024-02-21T02:30:09;18.95;;;5.05;;
42200;SDS011;27869;51.442;7.540;2024-02-21T02:32:37;18.27;;;5.93;;
42200;SDS011;27869;51.442;7.540;2024-02-21T02:35:04;18.48;;;4.82;;
42200;SDS011;27869;51.442;7.540;2024-02-21T02:37:31;17.10;;;5.35;;
42200;SDS011;27869;51.442;7.540;2024-02-21T02:39:58;19.90;;;5.47;;
42200;SDS011;27869;51.442;7.540;2024-02-21T02:42:26;21.08;;;5.95;;
42200;SDS011;27869;51.442;7.540;2024-02-21T02:44:53;19.88;;;5.40;;
42200;SDS011;27869;51.442;7.540;2024-02-21T02:47:19;21.10;;;5.45;;
42200;SDS011;27869;51.442;7.540;2024-02-21T02:49:46;18.75;;;5.45;;
42200;SDS011;27869;51.442;7.540;2024-02-21T02:52:15;23.85;;;6.10;;
42200;SDS011;27869;51.442;7.540;2024-02-21T02:54:42;18.50;;;5.60;;
42200;SDS011;27869;51.442;7.540;2024-02-21T02:57:09;19.17;;;5.72;;
42200;SDS011;27869;51.442;7.540;2024-02-21T02:59:38;18.10;;;6.03;;
42200;SDS011;27869;51.442;7.540;2024-02-21T03:02:04;21.30;;;6.30;;
42200;SDS011;27869;51.442;7.540;2024-02-21T03:04:31;22.13;;;6.53;;
42200;SDS011;27869;51.442;7.540;2024-02-21T03:06:58;20.35;;;6.03;;
42200;SDS011;27869;51.442;7.540;2024-02-21T03:09:25;17.23;;;5.70;;
42200;SDS011;27869;51.442;7.540;2024-02-21T03:11:53;18.95;;;6.57;;
42200;SDS011;27869;51.442;7.540;2024-02-21T03:14:22;19.73;;;5.93;;
42200;SDS011;27869;51.442;7.540;2024-02-21T03:16:52;21.10;;;6.57;;
42200;SDS011;27869;51.442;7.540;2024-02-21T03:19:19;20.77;;;5.10;;
42200;SDS011;27869;51.442;7.540;2024-02-21T03:21:46;19.52;;;5.65;;
42200;SDS011;27869;51.442;7.540;2024-02-21T03:24:13;18.20;;;5.60;;
42200;SDS011;27869;51.442;7.540;2024-02-21T03:26:39;19.88;;;6.28;;
42200;SDS011;27869;51.442;7.540;2024-02-21T03:29:06;19.77;;;5.40;;
42200;SDS011;27869;51.442;7.540;2024-02-21T03:31:33;19.65;;;5.97;;
42200;SDS011;27869;51.442;7.540;2024-02-21T03:34:02;20.33;;;5.45;;
42200;SDS011;27869;51.442;7.540;2024-02-21T03:36:29;18.55;;;5.35;;
42200;SDS011;27869;51.442;7.540;2024-02-21T03:38:56;16.45;;;5.10;;
42200;SDS011;27869;51.442;7.540;2024-02-21T03:41:22;22.05;;;6.32;;
42200;SDS011;27869;51.442;7.540;2024-02-21T03:43:49;17.98;;;5.75;;
42200;SDS011;27869;51.442;7.540;2024-02-21T03:46:16;19.00;;;5.30;;
42200;SDS011;27869;51.442;7.540;2024-02-21T03:48:43;15.57;;;5.03;;
42200;SDS011;27869;51.442;7.540;2024-02-21T03:51:12;18.10;;;5.35;;
42200;SDS011;27869;51.442;7.540;2024-02-21T03:53:40;19.00;;;5.65;;
42200;SDS011;27869;51.442;7.540;2024-02-21T03:56:07;17.60;;;5.25;;
42200;SDS011;27869;51.442;7.540;2024-02-21T03:58:41;20.95;;;5.90;;
42200;SDS011;27869;51.442;7.540;2024-02-21T04:01:08;18.35;;;5.13;;
42200;SDS011;27869;51.442;7.540;2024-02-21T04:03:34;19.48;;;5.38;;
42200;SDS011;27869;51.442;7.540;2024-02-21T04:06:01;21.25;;;5.57;;
42200;SDS011;27869;51.442;7.540;2024-02-21T04:08:30;18.17;;;5.40;;
42200;SDS011;27869;51.442;7.540;2024-02-21T04:10:57;17.02;;;5.25;;
42200;SDS011;27869;51.442;7.540;2024-02-21T04:13:24;16.13;;;4.80;;
42200;SDS011;27869;51.442;7.540;2024-02-21T04:15:51;15.80;;;5.13;;
42200;SDS011;27869;51.442;7.540;2024-02-21T04:18:18;16.65;;;5.13;;
42200;SDS011;27869;51.442;7.540;2024-02-21T04:20:45;20.13;;;4.82;;
42200;SDS011;27869;51.442;7.540;2024-02-21T04:23:12;17.38;;;4.50;;
42200;SDS011;27869;51.442;7.540;2024-02-21T04:25:41;17.92;;;5.07;;
42200;SDS011;27869;51.442;7.540;2024-02-21T04:28:08;17.90;;;5.60;;
42200;SDS011;27869;51.442;7.540;2024-02-21T04:30:34;18.38;;;5.22;;
42200;SDS011;27869;51.442;7.540;2024-02-21T04:33:01;16.92;;;4.90;;
42200;SDS011;27869;51.442;7.540;2024-02-21T04:35:28;19.42;;;5.28;;
42200;SDS011;27869;51.442;7.540;2024-02-21T04:37:55;24.17;;;5.50;;
42200;SDS011;27869;51.442;7.540;2024-02-21T04:40:22;16.88;;;4.78;;
42200;SDS011;27869;51.442;7.540;2024-02-21T04:42:50;16.13;;;4.68;;
42200;SDS011;27869;51.442;7.540;2024-02-21T04:45:17;16.35;;;4.88;;
42200;SDS011;27869;51.442;7.540;2024-02-21T04:47:44;16.25;;;4.90;;
42200;SDS011;27869;51.442;7.540;2024-02-21T04:50:11;16.38;;;5.05;;
42200;SDS011;27869;51.442;7.540;2024-02-21T04:52:38;16.35;;;5.13;;
42200;SDS011;27869;51.442;7.540;2024-02-21T04:55:04;16.10;;;4.63;;
42200;SDS011;27869;51.442;7.540;2024-02-21T04:57:32;15.70;;;4.10;;
42200;SDS011;27869;51.442;7.540;2024-02-21T05:00:00;16.25;;;4.95;;
42200;SDS011;27869;51.442;7.540;2024-02-21T05:02:28;20.20;;;5.47;;
42200;SDS011;27869;51.442;7.540;2024-02-21T05:04:55;16.30;;;4.82;;
42200;SDS011;27869;51.442;7.540;2024-02-21T05:07:22;18.35;;;4.88;;
42200;SDS011;27869;51.442;7.540;2024-02-21T05:09:49;14.38;;;4.47;;
42200;SDS011;27869;51.442;7.540;2024-02-21T05:12:16;16.00;;;4.70;;
42200;SDS011;27869;51.442;7.540;2024-02-21T05:14:42;19.33;;;4.40;;
42200;SDS011;27869;51.442;7.540;2024-02-21T05:17:10;15.57;;;4.75;;
42200;SDS011;27869;51.442;7.540;2024-02-21T05:19:37;17.33;;;4.60;;
42200;SDS011;27869;51.442;7.540;2024-02-21T05:22:04;17.35;;;4.30;;
42200;SDS011;27869;51.442;7.540;2024-02-21T05:24:31;18.10;;;5.20;;
42200;SDS011;27869;51.442;7.540;2024-02-21T05:26:58;18.20;;;4.50;;
42200;SDS011;27869;51.442;7.540;2024-02-21T05:29:25;18.20;;;4.40;;
42200;SDS011;27869;51.442;7.540;2024-02-21T05:31:55;14.00;;;4.20;;
42200;SDS011;27869;51.442;7.540;2024-02-21T05:34:24;16.77;;;4.30;;
42200;SDS011;27869;51.442;7.540;2024-02-21T05:36:51;18.10;;;5.28;;
42200;SDS011;27869;51.442;7.540;2024-02-21T05:39:18;16.58;;;4.30;;
42200;SDS011;27869;51.442;7.540;2024-02-21T05:41:47;16.35;;;5.28;;
42200;SDS011;27869;51.442;7.540;2024-02-21T05:44:15;15.63;;;4.32;;
42200;SDS011;27869;51.442;7.540;2024-02-21T05:46:42;37.50;;;14.18;;
42200;SDS011;27869;51.442;7.540;2024-02-21T05:49:09;15.48;;;4.35;;
42200;SDS011;27869;51.442;7.540;2024-02-21T05:51:37;14.18;;;4.18;;
42200;SDS011;27869;51.442;7.540;2024-02-21T05:54:04;15.55;;;3.83;;
42200;SDS011;27869;51.442;7.540;2024-02-21T05:56:32;15.95;;;4.13;;
42200;SDS011;27869;51.442;7.540;2024-02-21T05:58:59;13.10;;;4.07;;
42200;SDS011;27869;51.442;7.540;2024-02-21T06:01:26;19.55;;;4.65;;
42200;SDS011;27869;51.442;7.540;2024-02-21T06:03:53;16.75;;;4.22;;
42200;SDS011;27869;51.442;7.540;2024-02-21T06:06:20;15.40;;;4.82;;
42200;SDS011;27869;51.442;7.540;2024-02-21T06:08:48;15.85;;;5.75;;
42200;SDS011;27869;51.442;7.540;2024-02-21T06:11:15;15.48;;;4.32;;
42200;SDS011;27869;51.442;7.540;2024-02-21T06:13:42;15.32;;;5.32;;
42200;SDS011;27869;51.442;7.540;2024-02-21T06:16:09;16.13;;;4.10;;
42200;SDS011;27869;51.442;7.540;2024-02-21T06:18:36;15.32;;;5.07;;
42200;SDS011;27869;51.442;7.540;2024-02-21T06:21:03;16.40;;;4.90;;
42200;SDS011;27869;51.442;7.540;2024-02-21T06:23:30;19.10;;;5.03;;
42200;SDS011;27869;51.442;7.540;2024-02-21T06:25:58;18.30;;;4.55;;
42200;SDS011;27869;51.442;7.540;2024-02-21T06:28:25;13.60;;;4.40;;
42200;SDS011;27869;51.442;7.540;2024-02-21T06:30:52;29.83;;;14.18;;
42200;SDS011;27869;51.442;7.540;2024-02-21T06:33:19;16.98;;;4.68;;
42200;SDS011;27869;51.442;7.540;2024-02-21T06:35:49;14.05;;;4.28;;
42200;SDS011;27869;51.442;7.540;2024-02-21T06:38:18;15.10;;;4.35;;
42200;SDS011;27869;51.442;7.540;2024-02-21T06:40:45;16.27;;;4.63;;
42200;SDS011;27869;51.442;7.540;2024-02-21T06:43:17;15.85;;;4.28;;
42200;SDS011;27869;51.442;7.540;2024-02-21T06:45:45;15.82;;;4.40;;
42200;SDS011;27869;51.442;7.540;2024-02-21T06:48:15;15.48;;;4.10;;
42200;SDS011;27869;51.442;7.540;2024-02-21T06:50:43;13.32;;;3.50;;
42200;SDS011;27869;51.442;7.540;2024-02-21T06:53:10;14.07;;;3.85;;
42200;SDS011;27869;51.442;7.540;2024-02-21T06:55:36;15.65;;;4.20;;
42200;SDS011;27869;51.442;7.540;2024-02-21T06:58:03;13.52;;;3.83;;
42200;SDS011;27869;51.442;7.540;2024-02-21T07:00:32;12.75;;;3.53;;
42200;SDS011;27869;51.442;7.540;2024-02-21T07:02:58;14.98;;;3.83;;
42200;SDS011;27869;51.442;7.540;2024-02-21T07:05:25;12.98;;;3.35;;
42200;SDS011;27869;51.442;7.540;2024-02-21T07:07:52;12.82;;;3.40;;
42200;SDS011;27869;51.442;7.540;2024-02-21T07:10:19;14.18;;;3.55;;
42200;SDS011;27869;51.442;7.540;2024-02-21T07:12:46;15.95;;;3.83;;
42200;SDS011;27869;51.442;7.540;2024-02-21T07:15:13;14.50;;;5.00;;
42200;SDS011;27869;51.442;7.540;2024-02-21T07:17:42;12.05;;;3.83;;
42200;SDS011;27869;51.442;7.540;2024-02-21T07:20:09;17.27;;;6.20;;
42200;SDS011;27869;51.442;7.540;2024-02-21T07:22:36;15.82;;;4.45;;
42200;SDS011;27869;51.442;7.540;2024-02-21T07:25:03;12.60;;;3.17;;
42200;SDS011;27869;51.442;7.540;2024-02-21T07:27:31;19.27;;;3.83;;
42200;SDS011;27869;51.442;7.540;2024-02-21T07:29:58;13.35;;;4.00;;
42200;SDS011;27869;51.442;7.540;2024-02-21T07:32:25;12.55;;;3.60;;
42200;SDS011;27869;51.442;7.540;2024-02-21T07:34:53;14.55;;;3.53;;
42200;SDS011;27869;51.442;7.540;2024-02-21T07:37:20;12.77;;;3.75;;
42200;SDS011;27869;51.442;7.540;2024-02-21T07:39:47;16.05;;;3.97;;
42200;SDS011;27869;51.442;7.540;2024-02-21T07:42:14;13.52;;;4.03;;
42200;SDS011;27869;51.442;7.540;2024-02-21T07:44:41;16.17;;;4.20;;
42200;SDS011;27869;51.442;7.540;2024-02-21T07:47:08;15.38;;;3.88;;
42200;SDS011;27869;51.442;7.540;2024-02-21T07:49:40;14.70;;;4.20;;
42200;SDS011;27869;51.442;7.540;2024-02-21T07:52:09;15.23;;;4.30;;
42200;SDS011;27869;51.442;7.540;2024-02-21T07:54:36;17.98;;;3.85;;
42200;SDS011;27869;51.442;7.540;2024-02-21T07:57:03;15.85;;;4.38;;
42200;SDS011;27869;51.442;7.540;2024-02-21T07:59:30;14.45;;;3.85;;
42200;SDS011;27869;51.442;7.540;2024-02-21T08:01:57;13.30;;;4.00;;
42200;SDS011;27869;51.442;7.540;2024-02-21T08:04:24;15.10;;;4.45;;
42200;SDS011;27869;51.442;7.540;2024-02-21T08:06:51;14.88;;;4.63;;
42200;SDS011;27869;51.442;7.540;2024-02-21T08:09:22;15.75;;;4.70;;
42200;SDS011;27869;51.442;7.540;2024-02-21T08:11:49;15.07;;;4.25;;
42200;SDS011;27869;51.442;7.540;2024-02-21T08:14:16;17.75;;;4.47;;
42200;SDS011;27869;51.442;7.540;2024-02-21T08:16:43;15.70;;;4.20;;
42200;SDS011;27869;51.442;7.540;2024-02-21T08:19:10;18.45;;;4.65;;
42200;SDS011;27869;51.442;7.540;2024-02-21T08:21:39;14.95;;;4.50;;
42200;SDS011;27869;51.442;7.540;2024-02-21T08:24:06;14.63;;;3.97;;
42200;SDS011;27869;51.442;7.540;2024-02-21T08:26:34;17.88;;;4.22;;
42200;SDS011;27869;51.442;7.540;2024-02-21T08:29:01;15.65;;;4.40;;
42200;SDS011;27869;51.442;7.540;2024-02-21T08:31:28;14.60;;;4.25;;
42200;SDS011;27869;51.442;7.540;2024-02-21T08:33:56;15.40;;;4.13;;
42200;SDS011;27869;51.442;7.540;2024-02-21T08:36:28;14.38;;;4.00;;
42200;SDS011;27869;51.442;7.540;2024-02-21T08:38:55;14.32;;;3.75;;
42200;SDS011;27869;51.442;7.540;2024-02-21T08:41:23;14.35;;;3.78;;
42200;SDS011;27869;51.442;7.540;2024-02-21T08:43:51;14.00;;;3.33;;
42200;SDS011;27869;51.442;7.540;2024-02-21T08:46:21;17.08;;;4.13;;
42200;SDS011;27869;51.442;7.540;2024-02-21T08:51:16;13.18;;;3.17;;
42200;SDS011;27869;51.442;7.540;2024-02-21T08:53:43;13.43;;;3.58;;
42200;SDS011;27869;51.442;7.540;2024-02-21T08:56:10;13.45;;;3.80;;
42200;SDS011;27869;51.442;7.540;2024-02-21T08:58:38;14.27;;;3.50;;
42200;SDS011;27869;51.442;7.540;2024-02-21T09:01:07;12.05;;;3.72;;
42200;SDS011;27869;51.442;7.540;2024-02-21T09:03:35;16.10;;;4.53;;
42200;SDS011;27869;51.442;7.540;2024-02-21T09:06:03;14.48;;;4.45;;
42200;SDS011;27869;51.442;7.540;2024-02-21T09:08:31;13.80;;;4.50;;
42200;SDS011;27869;51.442;7.540;2024-02-21T09:10:58;15.30;;;4.03;;
42200;SDS011;27869;51.442;7.540;2024-02-21T09:13:26;12.88;;;3.75;;
42200;SDS011;27869;51.442;7.540;2024-02-21T09:15:53;14.02;;;4.57;;
42200;SDS011;27869;51.442;7.540;2024-02-21T09:18:21;14.35;;;4.68;;
42200;SDS011;27869;51.442;7.540;2024-02-21T09:20:48;15.30;;;4.90;;
42200;SDS011;27869;51.442;7.540;2024-02-21T09:23:15;14.95;;;4.50;;
42200;SDS011;27869;51.442;7.540;2024-02-21T09:25:42;13.77;;;4.35;;
42200;SDS011;27869;51.442;7.540;2024-02-21T09:28:09;16.48;;;4.60;;
42200;SDS011;27869;51.442;7.540;2024-02-21T09:30:36;12.93;;;3.70;;
42200;SDS011;27869;51.442;7.540;2024-02-21T09:33:04;14.80;;;4.20;;
42200;SDS011;27869;51.442;7.540;2024-02-21T09:35:33;15.45;;;3.72;;
42200;SDS011;27869;51.442;7.540;2024-02-21T09:38:00;13.70;;;3.40;;
42200;SDS011;27869;51.442;7.540;2024-02-21T09:40:27;12.02;;;3.30;;
42200;SDS011;27869;51.442;7.540;2024-02-21T09:42:57;12.90;;;3.13;;
42200;SDS011;27869;51.442;7.540;2024-02-21T09:45:31;14.55;;;3.35;;
42200;SDS011;27869;51.442;7.540;2024-02-21T09:48:16;12.68;;;2.85;;
42200;SDS011;27869;51.442;7.540;2024-02-21T09:50:53;12.15;;;3.22;;
42200;SDS011;27869;51.442;7.540;2024-02-21T09:53:22;14.05;;;3.55;;
42200;SDS011;27869;51.442;7.540;2024-02-21T09:55:51;15.68;;;2.90;;
42200;SDS011;27869;51.442;7.540;2024-02-21T09:58:18;15.52;;;3.42;;
42200;SDS011;27869;51.442;7.540;2024-02-21T10:00:45;14.48;;;3.10;;
42200;SDS011;27869;51.442;7.540;2024-02-21T10:03:12;11.60;;;3.25;;
42200;SDS011;27869;51.442;7.540;2024-02-21T10:05:45;15.50;;;3.58;;
42200;SDS011;27869;51.442;7.540;2024-02-21T10:08:16;16.08;;;3.65;;
42200;SDS011;27869;51.442;7.540;2024-02-21T10:10:43;14.77;;;3.17;;
42200;SDS011;27869;51.442;7.540;2024-02-21T10:13:21;12.18;;;2.92;;
42200;SDS011;27869;51.442;7.540;2024-02-21T10:16:00;17.80;;;4.18;;
42200;SDS011;27869;51.442;7.540;2024-02-21T10:18:27;13.60;;;3.47;;
42200;SDS011;27869;51.442;7.540;2024-02-21T10:20:59;12.77;;;3.15;;
42200;SDS011;27869;51.442;7.540;2024-02-21T10:23:28;14.68;;;3.47;;
42200;SDS011;27869;51.442;7.540;2024-02-21T10:26:04;14.93;;;3.22;;
42200;SDS011;27869;51.442;7.540;2024-02-21T10:28:31;14.95;;;3.58;;
42200;SDS011;27869;51.442;7.540;2024-02-21T10:30:58;14.93;;;3.30;;
42200;SDS011;27869;51.442;7.540;2024-02-21T10:33:25;17.35;;;3.92;;
42200;SDS011;27869;51.442;7.540;2024-02-21T10:35:53;14.57;;;3.42;;
42200;SDS011;27869;51.442;7.540;2024-02-21T10:38:20;15.57;;;3.65;;
42200;SDS011;27869;51.442;7.540;2024-02-21T10:40:48;14.38;;;3.50;;
42200;SDS011;27869;51.442;7.540;2024-02-21T10:43:18;15.48;;;3.15;;
42200;SDS011;27869;51.442;7.540;2024-02-21T10:45:46;14.40;;;3.10;;
42200;SDS011;27869;51.442;7.540;2024-02-21T10:48:15;15.55;;;3.95;;
42200;SDS011;27869;51.442;7.540;2024-02-21T10:50:53;15.73;;;3.50;;
42200;SDS011;27869;51.442;7.540;2024-02-21T10:53:26;13.35;;;3.22;;
42200;SDS011;27869;51.442;7.540;2024-02-21T10:56:01;18.52;;;3.63;;
42200;SDS011;27869;51.442;7.540;2024-02-21T10:58:38;14.35;;;3.20;;
42200;SDS011;27869;51.442;7.540;2024-02-21T11:01:06;15.73;;;3.42;;
42200;SDS011;27869;51.442;7.540;2024-02-21T11:03:34;15.60;;;2.90;;
42200;SDS011;27869;51.442;7.540;2024-02-21T11:06:02;18.45;;;3.80;;
42200;SDS011;27869;51.442;7.540;2024-02-21T11:08:30;17.92;;;4.28;;
42200;SDS011;27869;51.442;7.540;2024-02-21T11:10:58;18.23;;;4.30;;
42200;SDS011;27869;51.442;7.540;2024-02-21T11:13:30;13.63;;;3.67;;
42200;SDS011;27869;51.442;7.540;2024-02-21T11:16:05;13.32;;;3.63;;
42200;SDS011;27869;51.442;7.540;2024-02-21T11:18:34;12.52;;;3.20;;
42200;SDS011;27869;51.442;7.540;2024-02-21T11:21:01;14.05;;;2.90;;
42200;SDS011;27869;51.442;7.540;2024-02-21T11:23:28;14.30;;;3.40;;
42200;SDS011;27869;51.442;7.540;2024-02-21T11:26:04;14.05;;;3.15;;
42200;SDS011;27869;51.442;7.540;2024-02-21T11:28:32;15.88;;;2.95;;
42200;SDS011;27869;51.442;7.540;2024-02-21T11:31:06;15.60;;;3.20;;
42200;SDS011;27869;51.442;7.540;2024-02-21T11:33:34;14.55;;;3.38;;
42200;SDS011;27869;51.442;7.540;2024-02-21T11:36:01;12.18;;;2.83;;
42200;SDS011;27869;51.442;7.540;2024-02-21T11:38:29;11.70;;;2.90;;
42200;SDS011;27869;51.442;7.540;2024-02-21T11:40:56;13.77;;;3.60;;
42200;SDS011;27869;51.442;7.540;2024-02-21T11:43:24;11.43;;;2.80;;
42200;SDS011;27869;51.442;7.540;2024-02-21T11:45:58;11.13;;;2.50;;
42200;SDS011;27869;51.442;7.540;2024-02-21T11:48:25;17.85;;;2.78;;
42200;SDS011;27869;51.442;7.540;2024-02-21T11:50:53;14.32;;;3.20;;
42200;SDS011;27869;51.442;7.540;2024-02-21T11:53:21;15.13;;;3.38;;
42200;SDS011;27869;51.442;7.540;2024-02-21T11:55:48;13.88;;;3.15;;
42200;SDS011;27869;51.442;7.540;2024-02-21T11:58:16;11.25;;;2.30;;
42200;SDS011;27869;51.442;7.540;2024-02-21T12:00:44;12.48;;;3.13;;
42200;SDS011;27869;51.442;7.540;2024-02-21T12:03:11;11.20;;;2.50;;
42200;SDS011;27869;51.442;7.540;2024-02-21T12:05:38;14.68;;;2.72;;
42200;SDS011;27869;51.442;7.540;2024-02-21T12:08:06;14.63;;;2.70;;
42200;SDS011;27869;51.442;7.540;2024-02-21T12:10:34;13.73;;;2.50;;
42200;SDS011;27869;51.442;7.540;2024-02-21T12:13:07;14.73;;;3.10;;
42200;SDS011;27869;51.442;7.540;2024-02-21T12:15:35;14.27;;;2.83;;
42200;SDS011;27869;51.442;7.540;2024-02-21T12:18:03;13.05;;;2.88;;
42200;SDS011;27869;51.442;7.540;2024-02-21T12:22:59;13.27;;;2.53;;
42200;SDS011;27869;51.442;7.540;2024-02-21T12:25:27;14.50;;;2.60;;
42200;SDS011;27869;51.442;7.540;2024-02-21T12:27:54;12.43;;;2.60;;
42200;SDS011;27869;51.442;7.540;2024-02-21T12:30:21;14.40;;;2.80;;
42200;SDS011;27869;51.442;7.540;2024-02-21T12:32:48;13.57;;;3.15;;
42200;SDS011;27869;51.442;7.540;2024-02-21T12:35:17;12.77;;;2.50;;
42200;SDS011;27869;51.442;7.540;2024-02-21T12:37:44;13.30;;;2.72;;
42200;SDS011;27869;51.442;7.540;2024-02-21T12:40:11;11.52;;;2.47;;
42200;SDS011;27869;51.442;7.540;2024-02-21T12:42:39;13.80;;;2.47;;
42200;SDS011;27869;51.442;7.540;2024-02-21T12:45:06;12.25;;;2.50;;
42200;SDS011;27869;51.442;7.540;2024-02-21T12:47:34;10.85;;;2.63;;
42200;SDS011;27869;51.442;7.540;2024-02-21T12:50:01;11.07;;;2.20;;
42200;SDS011;27869;51.442;7.540;2024-02-21T12:52:33;13.27;;;2.88;;
42200;SDS011;27869;51.442;7.540;2024-02-21T12:55:00;10.63;;;2.50;;
42200;SDS011;27869;51.442;7.540;2024-02-21T12:57:27;10.95;;;2.30;;
42200;SDS011;27869;51.442;7.540;2024-02-21T12:59:53;17.75;;;2.75;;
42200;SDS011;27869;51.442;7.540;2024-02-21T13:02:20;10.48;;;2.10;;
42200;SDS011;27869;51.442;7.540;2024-02-21T13:04:47;10.77;;;2.50;;
42200;SDS011;27869;51.442;7.540;2024-02-21T13:07:14;15.15;;;2.53;;
42200;SDS011;27869;51.442;7.540;2024-02-21T13:09:42;10.68;;;2.10;;
42200;SDS011;27869;51.442;7.540;2024-02-21T13:12:10;13.23;;;2.53;;
42200;SDS011;27869;51.442;7.540;2024-02-21T13:14:37;13.57;;;2.40;;
42200;SDS011;27869;51.442;7.540;2024-02-21T13:17:04;13.27;;;2.78;;
42200;SDS011;27869;51.442;7.540;2024-02-21T13:19:32;12.40;;;2.40;;
42200;SDS011;27869;51.442;7.540;2024-02-21T13:21:58;10.77;;;2.20;;
42200;SDS011;27869;51.442;7.540;2024-02-21T13:24:25;14.38;;;2.40;;
42200;SDS011;27869;51.442;7.540;2024-02-21T13:26:54;12.30;;;2.47;;
42200;SDS011;27869;51.442;7.540;2024-02-21T13:29:20;11.32;;;2.22;;
42200;SDS011;27869;51.442;7.540;2024-02-21T13:31:47;9.75;;;2.60;;
42200;SDS011;27869;51.442;7.540;2024-02-21T13:34:15;13.75;;;2.40;;
42200;SDS011;27869;51.442;7.540;2024-02-21T13:36:42;16.27;;;2.80;;
42200;SDS011;27869;51.442;7.540;2024-02-21T13:39:10;14.63;;;2.70;;
42200;SDS011;27869;51.442;7.540;2024-02-21T13:41:40;10.75;;;2.20;;
42200;SDS011;27869;51.442;7.540;2024-02-21T13:44:09;15.27;;;2.78;;
42200;SDS011;27869;51.442;7.540;2024-02-21T13:46:37;16.10;;;2.80;;
42200;SDS011;27869;51.442;7.540;2024-02-21T13:49:05;12.73;;;2.53;;
42200;SDS011;27869;51.442;7.540;2024-02-21T13:51:32;11.45;;;2.72;;
42200;SDS011;27869;51.442;7.540;2024-02-21T13:54:01;15.65;;;2.72;;
42200;SDS011;27869;51.442;7.540;2024-02-21T13:56:29;13.75;;;2.60;;
42200;SDS011;27869;51.442;7.540;2024-02-21T13:58:57;12.15;;;2.97;;
42200;SDS011;27869;51.442;7.540;2024-02-21T14:01:26;11.15;;;2.67;;
42200;SDS011;27869;51.442;7.540;2024-02-21T14:03:54;11.75;;;2.88;;
42200;SDS011;27869;51.442;7.540;2024-02-21T14:06:20;13.60;;;2.50;;
42200;SDS011;27869;51.442;7.540;2024-02-21T14:08:47;16.30;;;3.92;;
42200;SDS011;27869;51.442;7.540;2024-02-21T14:11:15;17.23;;;3.40;;
42200;SDS011;27869;51.442;7.540;2024-02-21T14:13:41;17.65;;;5.32;;
42200;SDS011;27869;51.442;7.540;2024-02-21T14:16:09;16.48;;;3.42;;
42200;SDS011;27869;51.442;7.540;2024-02-21T14:18:39;11.63;;;2.40;;
42200;SDS011;27869;51.442;7.540;2024-02-21T14:21:07;12.05;;;2.53;;
42200;SDS011;27869;51.442;7.540;2024-02-21T14:23:35;14.57;;;2.90;;
42200;SDS011;27869;51.442;7.540;2024-02-21T14:26:02;12.48;;;3.00;;
42200;SDS011;27869;51.442;7.540;2024-02-21T14:28:29;12.75;;;2.35;;
42200;SDS011;27869;51.442;7.540;2024-02-21T14:30:56;9.13;;;2.30;;
42200;SDS011;27869;51.442;7.540;2024-02-21T14:35:54;10.48;;;2.92;;
42200;SDS011;27869;51.442;7.540;2024-02-21T14:38:21;12.93;;;2.42;;
42200;SDS011;27869;51.442;7.540;2024-02-21T14:40:48;16.40;;;3.03;;
42200;SDS011;27869;51.442;7.540;2024-02-21T14:43:15;11.98;;;2.45;;